Skip Navigation Links Skip Navigation Links

Current Weather

Raleigh-Durham Intl, Raleigh, N.C.

For information only: do not use for flight planning or navigation.
Latest weather
Observation time Monday, November 29, 2021 3:51 PM EST
Local time Monday, November 29, 2021 4:09 PM EST
Flight conditions Visual Meteorological Conditions
Winds
Wind direction North-Northwest (330°)
Wind speed 6 mph
Visibility 10 mi.
Sky condition
Ceiling 25,000 ft. broken clouds
Cloud layer scattered clouds 23,000 ft.
Cloud layer broken clouds 25,000 ft.
Temperature 48°F
Dewpoint 20°F
Altimeter 30.05 in.Hg
Pressure change last 3 hours0.01 in.Hg
Pressure falling, then rising
Derived measurements
Relative humidity 32%
Wind chill 45°F
Density altitude -381 ft.
Sea-level pressure 30.05 in.Hg
Remarks
Automated weather observing station with precipitation discriminator.
METAR KRDU 292051Z 33005KT 10SM SCT230 BKN250 09/M07 A3005 RMK AO2 SLP176 T00891067 55003

Settings

Location code

InnerDrive.Weather 4.0.6770.0 Release CLR 4.0.30319.42000
Copyright ©2018 Inner Drive Technology. All rights reserved. Portions Copyright ©1986-2018 David Braverman.

Find weather

Site navigation


Skip Navigation Links

Place info

Page info

PayPal - The safer, easier way to pay online!

Return home.

Copyright ©2021 Inner Drive Technology. Purveyors of fine, hand-crafted computer software. Page printed 2021-11-29T21:09:55 UTC.